sensor_id;sensor_type;location;lat;lon;timestamp;temperature;humidity
3350;DHT22;1688;51.000;13.684;2022-09-03T00:00:17;17.00;95.60
3350;DHT22;1688;51.000;13.684;2022-09-03T00:02:55;17.00;95.60
3350;DHT22;1688;51.000;13.684;2022-09-03T00:05:24;16.90;95.90
3350;DHT22;1688;51.000;13.684;2022-09-03T00:08:09;17.00;95.90
3350;DHT22;1688;51.000;13.684;2022-09-03T00:10:53;17.00;95.80
3350;DHT22;1688;51.000;13.684;2022-09-03T00:13:36;17.10;95.70
3350;DHT22;1688;51.000;13.684;2022-09-03T00:16:07;17.00;95.50
3350;DHT22;1688;51.000;13.684;2022-09-03T00:18:40;17.00;95.20
3350;DHT22;1688;51.000;13.684;2022-09-03T00:21:14;17.00;95.50
3350;DHT22;1688;51.000;13.684;2022-09-03T00:23:42;17.00;95.60
3350;DHT22;1688;51.000;13.684;2022-09-03T00:28:43;16.80;95.60
3350;DHT22;1688;51.000;13.684;2022-09-03T00:31:20;16.70;96.20
3350;DHT22;1688;51.000;13.684;2022-09-03T00:33:55;16.70;96.50
3350;DHT22;1688;51.000;13.684;2022-09-03T00:36:41;16.70;96.30
3350;DHT22;1688;51.000;13.684;2022-09-03T00:39:15;16.70;96.10
3350;DHT22;1688;51.000;13.684;2022-09-03T00:42:16;16.70;96.10
3350;DHT22;1688;51.000;13.684;2022-09-03T00:53:33;16.50;96.60
3350;DHT22;1688;51.000;13.684;2022-09-03T01:01:29;16.40;96.80
3350;DHT22;1688;51.000;13.684;2022-09-03T01:04:11;16.40;96.90
3350;DHT22;1688;51.000;13.684;2022-09-03T01:07:05;16.40;97.30
3350;DHT22;1688;51.000;13.684;2022-09-03T01:20:44;16.20;97.80
3350;DHT22;1688;51.000;13.684;2022-09-03T01:23:36;16.20;98.00
3350;DHT22;1688;51.000;13.684;2022-09-03T01:26:39;16.10;98.10
3350;DHT22;1688;51.000;13.684;2022-09-03T01:32:00;15.90;98.60
3350;DHT22;1688;51.000;13.684;2022-09-03T01:45:55;15.80;99.10
3350;DHT22;1688;51.000;13.684;2022-09-03T01:51:19;15.70;99.30
3350;DHT22;1688;51.000;13.684;2022-09-03T01:54:18;15.70;99.50
3350;DHT22;1688;51.000;13.684;2022-09-03T02:02:28;15.70;99.80
3350;DHT22;1688;51.000;13.684;2022-09-03T02:07:48;15.60;99.00
3350;DHT22;1688;51.000;13.684;2022-09-03T02:13:08;15.50;99.60
3350;DHT22;1688;51.000;13.684;2022-09-03T02:15:38;15.50;99.90
3350;DHT22;1688;51.000;13.684;2022-09-03T02:18:09;15.50;99.90
3350;DHT22;1688;51.000;13.684;2022-09-03T02:20:37;15.40;99.90
3350;DHT22;1688;51.000;13.684;2022-09-03T02:23:04;15.40;99.90
3350;DHT22;1688;51.000;13.684;2022-09-03T02:25:44;15.40;99.90
3350;DHT22;1688;51.000;13.684;2022-09-03T02:28:12;15.30;99.90
3350;DHT22;1688;51.000;13.684;2022-09-03T02:30:40;15.40;99.90
3350;DHT22;1688;51.000;13.684;2022-09-03T02:33:06;15.30;99.90
3350;DHT22;1688;51.000;13.684;2022-09-03T02:35:33;15.30;99.90
3350;DHT22;1688;51.000;13.684;2022-09-03T02:38:09;15.20;99.90
3350;DHT22;1688;51.000;13.684;2022-09-03T02:40:36;15.20;99.90
3350;DHT22;1688;51.000;13.684;2022-09-03T02:43:05;15.10;99.90
3350;DHT22;1688;51.000;13.684;2022-09-03T02:45:34;15.10;99.90
3350;DHT22;1688;51.000;13.684;2022-09-03T02:48:03;15.10;99.90
3350;DHT22;1688;51.000;13.684;2022-09-03T02:50:28;15.00;99.90
3350;DHT22;1688;51.000;13.684;2022-09-03T02:52:54;14.90;99.90
3350;DHT22;1688;51.000;13.684;2022-09-03T02:55:20;14.90;99.90
3350;DHT22;1688;51.000;13.684;2022-09-03T02:57:46;14.80;99.90
3350;DHT22;1688;51.000;13.684;2022-09-03T03:00:13;14.80;99.90
3350;DHT22;1688;51.000;13.684;2022-09-03T03:02:39;14.70;99.90
3350;DHT22;1688;51.000;13.684;2022-09-03T03:05:05;14.70;99.90
3350;DHT22;1688;51.000;13.684;2022-09-03T03:07:37;14.60;99.90
3350;DHT22;1688;51.000;13.684;2022-09-03T03:10:04;14.60;99.90
3350;DHT22;1688;51.000;13.684;2022-09-03T03:12:29;14.50;99.90
3350;DHT22;1688;51.000;13.684;2022-09-03T03:14:56;14.50;99.90
3350;DHT22;1688;51.000;13.684;2022-09-03T03:17:21;14.50;99.90
3350;DHT22;1688;51.000;13.684;2022-09-03T03:19:47;14.50;99.90
3350;DHT22;1688;51.000;13.684;2022-09-03T03:22:13;14.50;99.90
3350;DHT22;1688;51.000;13.684;2022-09-03T03:24:39;14.40;99.90
3350;DHT22;1688;51.000;13.684;2022-09-03T03:27:05;14.50;99.90
3350;DHT22;1688;51.000;13.684;2022-09-03T03:29:31;14.60;99.90
3350;DHT22;1688;51.000;13.684;2022-09-03T03:31:57;14.40;99.90
3350;DHT22;1688;51.000;13.684;2022-09-03T03:34:23;14.40;99.90
3350;DHT22;1688;51.000;13.684;2022-09-03T03:36:49;14.40;99.90
3350;DHT22;1688;51.000;13.684;2022-09-03T03:39:15;14.40;99.90
3350;DHT22;1688;51.000;13.684;2022-09-03T03:41:40;14.40;99.90
3350;DHT22;1688;51.000;13.684;2022-09-03T03:44:07;14.30;99.90
3350;DHT22;1688;51.000;13.684;2022-09-03T03:46:38;14.30;99.90
3350;DHT22;1688;51.000;13.684;2022-09-03T03:49:05;14.30;99.90
3350;DHT22;1688;51.000;13.684;2022-09-03T03:51:33;14.30;99.90
3350;DHT22;1688;51.000;13.684;2022-09-03T03:53:59;14.30;99.90
3350;DHT22;1688;51.000;13.684;2022-09-03T03:56:26;14.30;99.90
3350;DHT22;1688;51.000;13.684;2022-09-03T03:58:53;14.30;99.90
3350;DHT22;1688;51.000;13.684;2022-09-03T04:01:21;14.30;99.90
3350;DHT22;1688;51.000;13.684;2022-09-03T04:03:47;14.30;99.90
3350;DHT22;1688;51.000;13.684;2022-09-03T04:06:15;14.30;99.90
3350;DHT22;1688;51.000;13.684;2022-09-03T04:08:43;14.30;99.90
3350;DHT22;1688;51.000;13.684;2022-09-03T04:11:17;14.30;99.90
3350;DHT22;1688;51.000;13.684;2022-09-03T04:13:44;14.30;99.90
3350;DHT22;1688;51.000;13.684;2022-09-03T04:16:16;14.30;99.90
3350;DHT22;1688;51.000;13.684;2022-09-03T04:18:43;14.30;99.90
3350;DHT22;1688;51.000;13.684;2022-09-03T04:21:11;14.30;99.90
3350;DHT22;1688;51.000;13.684;2022-09-03T04:23:42;14.30;99.90
3350;DHT22;1688;51.000;13.684;2022-09-03T04:26:11;14.30;99.90
3350;DHT22;1688;51.000;13.684;2022-09-03T04:28:37;14.20;99.90
3350;DHT22;1688;51.000;13.684;2022-09-03T04:31:05;14.20;99.90
3350;DHT22;1688;51.000;13.684;2022-09-03T04:33:33;14.20;99.90
3350;DHT22;1688;51.000;13.684;2022-09-03T04:36:10;14.10;99.90
3350;DHT22;1688;51.000;13.684;2022-09-03T04:38:38;14.10;99.90
3350;DHT22;1688;51.000;13.684;2022-09-03T04:41:05;14.10;99.90
3350;DHT22;1688;51.000;13.684;2022-09-03T04:43:31;14.10;99.90
3350;DHT22;1688;51.000;13.684;2022-09-03T04:46:01;14.00;99.90
3350;DHT22;1688;51.000;13.684;2022-09-03T04:48:29;14.10;99.90
3350;DHT22;1688;51.000;13.684;2022-09-03T04:51:00;14.00;99.90
3350;DHT22;1688;51.000;13.684;2022-09-03T04:53:30;14.00;99.90
3350;DHT22;1688;51.000;13.684;2022-09-03T04:55:56;14.00;99.90
3350;DHT22;1688;51.000;13.684;2022-09-03T04:58:26;14.10;99.90
3350;DHT22;1688;51.000;13.684;2022-09-03T05:00:52;14.10;99.90
3350;DHT22;1688;51.000;13.684;2022-09-03T05:03:18;14.10;99.90
3350;DHT22;1688;51.000;13.684;2022-09-03T05:05:55;14.10;99.90
3350;DHT22;1688;51.000;13.684;2022-09-03T05:08:21;14.10;99.90
3350;DHT22;1688;51.000;13.684;2022-09-03T05:10:48;14.10;99.90
3350;DHT22;1688;51.000;13.684;2022-09-03T05:13:13;14.20;99.90
3350;DHT22;1688;51.000;13.684;2022-09-03T05:15:39;14.20;99.90
3350;DHT22;1688;51.000;13.684;2022-09-03T05:18:08;14.30;99.90
3350;DHT22;1688;51.000;13.684;2022-09-03T05:20:34;14.30;99.90
3350;DHT22;1688;51.000;13.684;2022-09-03T05:23:01;14.40;99.90
3350;DHT22;1688;51.000;13.684;2022-09-03T05:25:28;14.40;99.90
3350;DHT22;1688;51.000;13.684;2022-09-03T05:27:57;14.40;99.90
3350;DHT22;1688;51.000;13.684;2022-09-03T05:30:23;14.40;99.90
3350;DHT22;1688;51.000;13.684;2022-09-03T05:32:50;14.40;99.90
3350;DHT22;1688;51.000;13.684;2022-09-03T05:35:17;14.20;99.90
3350;DHT22;1688;51.000;13.684;2022-09-03T05:37:43;14.10;99.90
3350;DHT22;1688;51.000;13.684;2022-09-03T05:40:09;13.90;99.90
3350;DHT22;1688;51.000;13.684;2022-09-03T05:42:39;13.80;99.90
3350;DHT22;1688;51.000;13.684;2022-09-03T05:45:06;13.80;99.90
3350;DHT22;1688;51.000;13.684;2022-09-03T05:47:36;13.80;99.90
3350;DHT22;1688;51.000;13.684;2022-09-03T05:50:06;13.80;99.90
3350;DHT22;1688;51.000;13.684;2022-09-03T05:52:34;13.90;99.90
3350;DHT22;1688;51.000;13.684;2022-09-03T05:55:01;14.00;99.90
3350;DHT22;1688;51.000;13.684;2022-09-03T05:57:26;14.00;99.90
3350;DHT22;1688;51.000;13.684;2022-09-03T05:59:54;13.90;99.90
3350;DHT22;1688;51.000;13.684;2022-09-03T06:02:19;13.80;99.90
3350;DHT22;1688;51.000;13.684;2022-09-03T06:04:45;13.80;99.90
3350;DHT22;1688;51.000;13.684;2022-09-03T06:07:11;13.80;99.90
3350;DHT22;1688;51.000;13.684;2022-09-03T06:09:37;13.80;99.90
3350;DHT22;1688;51.000;13.684;2022-09-03T06:12:03;14.10;99.90
3350;DHT22;1688;51.000;13.684;2022-09-03T06:14:29;14.20;99.90
3350;DHT22;1688;51.000;13.684;2022-09-03T06:16:54;14.50;99.90
3350;DHT22;1688;51.000;13.684;2022-09-03T06:19:21;14.50;99.90
3350;DHT22;1688;51.000;13.684;2022-09-03T06:21:47;14.70;99.90
3350;DHT22;1688;51.000;13.684;2022-09-03T06:24:15;15.10;99.90
3350;DHT22;1688;51.000;13.684;2022-09-03T06:26:41;15.20;99.90
3350;DHT22;1688;51.000;13.684;2022-09-03T06:29:07;15.40;99.90
3350;DHT22;1688;51.000;13.684;2022-09-03T06:31:34;15.60;99.90
3350;DHT22;1688;51.000;13.684;2022-09-03T06:34:00;15.80;99.90
3350;DHT22;1688;51.000;13.684;2022-09-03T06:36:26;15.70;99.90
3350;DHT22;1688;51.000;13.684;2022-09-03T06:38:54;15.70;99.90
3350;DHT22;1688;51.000;13.684;2022-09-03T06:41:23;15.80;99.90
3350;DHT22;1688;51.000;13.684;2022-09-03T06:43:57;16.10;99.90
3350;DHT22;1688;51.000;13.684;2022-09-03T06:46:26;16.20;99.90
3350;DHT22;1688;51.000;13.684;2022-09-03T06:48:52;16.10;99.90
3350;DHT22;1688;51.000;13.684;2022-09-03T06:51:22;16.40;99.90
3350;DHT22;1688;51.000;13.684;2022-09-03T06:53:50;17.60;99.90
3350;DHT22;1688;51.000;13.684;2022-09-03T06:56:22;20.60;99.90
3350;DHT22;1688;51.000;13.684;2022-09-03T06:58:55;23.70;92.90
3350;DHT22;1688;51.000;13.684;2022-09-03T07:01:24;26.50;86.60
3350;DHT22;1688;51.000;13.684;2022-09-03T07:03:57;27.80;73.30
3350;DHT22;1688;51.000;13.684;2022-09-03T07:06:25;28.60;67.50
3350;DHT22;1688;51.000;13.684;2022-09-03T07:08:52;28.50;66.80
3350;DHT22;1688;51.000;13.684;2022-09-03T07:11:23;29.60;64.80
3350;DHT22;1688;51.000;13.684;2022-09-03T07:13:51;29.90;63.00
3350;DHT22;1688;51.000;13.684;2022-09-03T07:16:20;29.20;60.90
3350;DHT22;1688;51.000;13.684;2022-09-03T07:18:47;27.20;64.20
3350;DHT22;1688;51.000;13.684;2022-09-03T07:21:15;24.70;70.20
3350;DHT22;1688;51.000;13.684;2022-09-03T07:23:45;23.70;74.60
3350;DHT22;1688;51.000;13.684;2022-09-03T07:26:17;23.00;74.70
3350;DHT22;1688;51.000;13.684;2022-09-03T07:28:45;22.30;80.00
3350;DHT22;1688;51.000;13.684;2022-09-03T07:31:23;21.40;80.40
3350;DHT22;1688;51.000;13.684;2022-09-03T07:33:58;19.90;86.60
3350;DHT22;1688;51.000;13.684;2022-09-03T07:36:27;18.70;90.90
3350;DHT22;1688;51.000;13.684;2022-09-03T07:38:58;18.20;92.20
3350;DHT22;1688;51.000;13.684;2022-09-03T07:41:25;17.70;93.30
3350;DHT22;1688;51.000;13.684;2022-09-03T07:43:52;17.50;94.60
3350;DHT22;1688;51.000;13.684;2022-09-03T07:46:22;17.40;95.90
3350;DHT22;1688;51.000;13.684;2022-09-03T07:48:50;17.40;96.10
3350;DHT22;1688;51.000;13.684;2022-09-03T07:51:18;17.30;95.80
3350;DHT22;1688;51.000;13.684;2022-09-03T07:53:47;17.20;96.70
3350;DHT22;1688;51.000;13.684;2022-09-03T07:56:14;17.50;96.70
3350;DHT22;1688;51.000;13.684;2022-09-03T07:58:41;17.30;96.50
3350;DHT22;1688;51.000;13.684;2022-09-03T08:01:15;17.30;97.60
3350;DHT22;1688;51.000;13.684;2022-09-03T08:03:43;17.30;97.10
3350;DHT22;1688;51.000;13.684;2022-09-03T08:06:10;17.60;98.00
3350;DHT22;1688;51.000;13.684;2022-09-03T08:08:37;17.70;96.60
3350;DHT22;1688;51.000;13.684;2022-09-03T08:13:40;18.00;95.70
3350;DHT22;1688;51.000;13.684;2022-09-03T08:16:07;17.80;95.40
3350;DHT22;1688;51.000;13.684;2022-09-03T08:18:35;17.50;96.30
3350;DHT22;1688;51.000;13.684;2022-09-03T08:21:08;17.60;96.20
3350;DHT22;1688;51.000;13.684;2022-09-03T08:23:38;17.80;95.40
3350;DHT22;1688;51.000;13.684;2022-09-03T08:26:05;17.70;95.60
3350;DHT22;1688;51.000;13.684;2022-09-03T08:28:32;17.70;96.80
3350;DHT22;1688;51.000;13.684;2022-09-03T08:31:37;17.90;95.40
3350;DHT22;1688;51.000;13.684;2022-09-03T08:33:58;17.80;96.30
3350;DHT22;1688;51.000;13.684;2022-09-03T08:36:28;18.10;96.60
3350;DHT22;1688;51.000;13.684;2022-09-03T08:38:59;18.50;95.50
3350;DHT22;1688;51.000;13.684;2022-09-03T08:44:29;18.80;95.10
3350;DHT22;1688;51.000;13.684;2022-09-03T08:47:16;18.40;94.20
3350;DHT22;1688;51.000;13.684;2022-09-03T08:50:09;18.60;94.40
3350;DHT22;1688;51.000;13.684;2022-09-03T08:52:46;18.30;93.90
3350;DHT22;1688;51.000;13.684;2022-09-03T08:55:34;18.10;94.40
3350;DHT22;1688;51.000;13.684;2022-09-03T08:58:09;18.50;94.80
3350;DHT22;1688;51.000;13.684;2022-09-03T09:00:44;18.60;94.10
3350;DHT22;1688;51.000;13.684;2022-09-03T09:06:27;18.90;94.20
3350;DHT22;1688;51.000;13.684;2022-09-03T09:09:21;19.30;94.50
3350;DHT22;1688;51.000;13.684;2022-09-03T09:11:57;19.50;93.00
3350;DHT22;1688;51.000;13.684;2022-09-03T09:14:44;19.60;92.30
3350;DHT22;1688;51.000;13.684;2022-09-03T09:20:08;20.50;92.60
3350;DHT22;1688;51.000;13.684;2022-09-03T09:22:40;20.50;90.70
3350;DHT22;1688;51.000;13.684;2022-09-03T09:25:26;20.20;91.90
3350;DHT22;1688;51.000;13.684;2022-09-03T09:30:28;19.80;91.80
3350;DHT22;1688;51.000;13.684;2022-09-03T09:32:54;19.90;92.00
3350;DHT22;1688;51.000;13.684;2022-09-03T09:35:21;20.00;90.60
3350;DHT22;1688;51.000;13.684;2022-09-03T09:37:55;20.00;89.10
3350;DHT22;1688;51.000;13.684;2022-09-03T09:40:31;19.80;91.20
3350;DHT22;1688;51.000;13.684;2022-09-03T09:43:09;20.00;90.70
3350;DHT22;1688;51.000;13.684;2022-09-03T09:45:42;20.40;91.30
3350;DHT22;1688;51.000;13.684;2022-09-03T09:48:17;20.90;90.80
3350;DHT22;1688;51.000;13.684;2022-09-03T09:50:43;21.00;87.70
3350;DHT22;1688;51.000;13.684;2022-09-03T09:53:10;20.70;89.50
3350;DHT22;1688;51.000;13.684;2022-09-03T09:55:54;20.50;90.20
3350;DHT22;1688;51.000;13.684;2022-09-03T09:58:25;20.40;89.70
3350;DHT22;1688;51.000;13.684;2022-09-03T10:01:14;20.40;90.20
3350;DHT22;1688;51.000;13.684;2022-09-03T10:03:57;20.60;91.40
3350;DHT22;1688;51.000;13.684;2022-09-03T10:06:26;21.10;89.20
3350;DHT22;1688;51.000;13.684;2022-09-03T10:09:16;21.10;87.80
3350;DHT22;1688;51.000;13.684;2022-09-03T10:11:45;20.70;88.10
3350;DHT22;1688;51.000;13.684;2022-09-03T10:14:25;21.00;90.80
3350;DHT22;1688;51.000;13.684;2022-09-03T10:17:31;21.40;90.60
3350;DHT22;1688;51.000;13.684;2022-09-03T10:23:01;21.90;85.30
3350;DHT22;1688;51.000;13.684;2022-09-03T10:25:53;22.30;84.30
3350;DHT22;1688;51.000;13.684;2022-09-03T10:28:26;21.90;83.30
3350;DHT22;1688;51.000;13.684;2022-09-03T10:33:40;21.80;86.20
3350;DHT22;1688;51.000;13.684;2022-09-03T10:36:13;22.00;83.50
3350;DHT22;1688;51.000;13.684;2022-09-03T10:38:41;22.30;83.40
3350;DHT22;1688;51.000;13.684;2022-09-03T10:44:11;22.70;78.30
3350;DHT22;1688;51.000;13.684;2022-09-03T10:49:31;22.90;76.50
3350;DHT22;1688;51.000;13.684;2022-09-03T10:52:09;23.00;78.90
3350;DHT22;1688;51.000;13.684;2022-09-03T10:55:07;23.20;79.30
3350;DHT22;1688;51.000;13.684;2022-09-03T11:00:23;23.20;79.70
3350;DHT22;1688;51.000;13.684;2022-09-03T11:08:29;23.80;76.30
3350;DHT22;1688;51.000;13.684;2022-09-03T11:13:44;24.00;75.10
3350;DHT22;1688;51.000;13.684;2022-09-03T11:16:30;23.70;75.40
3350;DHT22;1688;51.000;13.684;2022-09-03T11:19:02;23.80;75.40
3350;DHT22;1688;51.000;13.684;2022-09-03T11:21:30;23.90;72.90
3350;DHT22;1688;51.000;13.684;2022-09-03T11:24:08;23.90;76.20
3350;DHT22;1688;51.000;13.684;2022-09-03T11:26:42;23.80;73.20
3350;DHT22;1688;51.000;13.684;2022-09-03T11:29:14;23.70;73.00
3350;DHT22;1688;51.000;13.684;2022-09-03T11:31:58;23.80;77.20
3350;DHT22;1688;51.000;13.684;2022-09-03T11:34:31;23.50;72.50
3350;DHT22;1688;51.000;13.684;2022-09-03T11:37:22;23.60;75.30
3350;DHT22;1688;51.000;13.684;2022-09-03T11:40:15;23.70;72.90
3350;DHT22;1688;51.000;13.684;2022-09-03T11:42:46;23.40;72.00
3350;DHT22;1688;51.000;13.684;2022-09-03T11:47:54;22.50;74.50
3350;DHT22;1688;51.000;13.684;2022-09-03T11:50:30;22.30;75.40
3350;DHT22;1688;51.000;13.684;2022-09-03T11:53:23;22.20;78.40
3350;DHT22;1688;51.000;13.684;2022-09-03T11:58:33;22.60;75.60
3350;DHT22;1688;51.000;13.684;2022-09-03T12:01:07;22.70;76.30
3350;DHT22;1688;51.000;13.684;2022-09-03T12:03:52;23.00;80.50
3350;DHT22;1688;51.000;13.684;2022-09-03T12:17:04;25.10;73.00
3350;DHT22;1688;51.000;13.684;2022-09-03T12:19:43;25.30;72.60
3350;DHT22;1688;51.000;13.684;2022-09-03T12:22:15;25.50;70.80
3350;DHT22;1688;51.000;13.684;2022-09-03T12:24:41;25.00;67.60
3350;DHT22;1688;51.000;13.684;2022-09-03T12:27:24;24.70;69.00
3350;DHT22;1688;51.000;13.684;2022-09-03T12:29:56;24.30;68.30
3350;DHT22;1688;51.000;13.684;2022-09-03T12:32:32;23.70;69.20
3350;DHT22;1688;51.000;13.684;2022-09-03T12:37:37;23.20;74.00
3350;DHT22;1688;51.000;13.684;2022-09-03T12:40:04;23.50;77.00
3350;DHT22;1688;51.000;13.684;2022-09-03T12:42:31;23.80;73.00
3350;DHT22;1688;51.000;13.684;2022-09-03T12:45:07;23.60;73.40
3350;DHT22;1688;51.000;13.684;2022-09-03T12:47:41;23.20;73.90
3350;DHT22;1688;51.000;13.684;2022-09-03T12:50:10;23.20;73.20
3350;DHT22;1688;51.000;13.684;2022-09-03T12:52:47;23.40;73.90
3350;DHT22;1688;51.000;13.684;2022-09-03T12:57:48;23.90;70.60
3350;DHT22;1688;51.000;13.684;2022-09-03T13:00:16;24.20;72.40
3350;DHT22;1688;51.000;13.684;2022-09-03T13:05:27;24.30;71.50
3350;DHT22;1688;51.000;13.684;2022-09-03T13:07:57;24.40;70.70
3350;DHT22;1688;51.000;13.684;2022-09-03T13:10:31;24.50;70.80
3350;DHT22;1688;51.000;13.684;2022-09-03T13:13:20;24.80;70.20
3350;DHT22;1688;51.000;13.684;2022-09-03T13:21:49;25.10;68.40
3350;DHT22;1688;51.000;13.684;2022-09-03T13:24:42;25.10;68.20
3350;DHT22;1688;51.000;13.684;2022-09-03T13:27:21;25.00;68.90
3350;DHT22;1688;51.000;13.684;2022-09-03T13:30:06;25.10;67.60
3350;DHT22;1688;51.000;13.684;2022-09-03T13:35:48;25.20;66.70
3350;DHT22;1688;51.000;13.684;2022-09-03T13:43:44;25.30;67.90
3350;DHT22;1688;51.000;13.684;2022-09-03T13:46:30;25.40;66.80
3350;DHT22;1688;51.000;13.684;2022-09-03T13:52:33;25.60;68.40
3350;DHT22;1688;51.000;13.684;2022-09-03T13:55:06;25.80;66.30
3350;DHT22;1688;51.000;13.684;2022-09-03T13:57:48;25.90;66.00
3350;DHT22;1688;51.000;13.684;2022-09-03T14:00:26;25.90;65.10
3350;DHT22;1688;51.000;13.684;2022-09-03T14:03:23;25.90;66.00
3350;DHT22;1688;51.000;13.684;2022-09-03T14:15:00;24.60;66.70
3350;DHT22;1688;51.000;13.684;2022-09-03T14:17:51;24.90;69.90
3350;DHT22;1688;51.000;13.684;2022-09-03T14:20:43;25.10;66.60
3350;DHT22;1688;51.000;13.684;2022-09-03T14:26:16;25.20;66.70
3350;DHT22;1688;51.000;13.684;2022-09-03T14:28:57;25.20;67.50
3350;DHT22;1688;51.000;13.684;2022-09-03T14:37:30;26.50;68.50
3350;DHT22;1688;51.000;13.684;2022-09-03T14:40:14;25.70;65.30
3350;DHT22;1688;51.000;13.684;2022-09-03T15:02:11;25.50;66.20
3350;DHT22;1688;51.000;13.684;2022-09-03T15:07:58;25.60;65.20
3350;DHT22;1688;51.000;13.684;2022-09-03T15:10:37;25.40;64.00
3350;DHT22;1688;51.000;13.684;2022-09-03T15:18:31;25.00;66.30
3350;DHT22;1688;51.000;13.684;2022-09-03T15:23:55;24.90;65.90
3350;DHT22;1688;51.000;13.684;2022-09-03T15:32:17;24.80;66.60
3350;DHT22;1688;51.000;13.684;2022-09-03T15:35:08;24.70;66.70
3350;DHT22;1688;51.000;13.684;2022-09-03T15:43:14;24.50;67.30
3350;DHT22;1688;51.000;13.684;2022-09-03T15:51:16;24.10;68.00
3350;DHT22;1688;51.000;13.684;2022-09-03T15:53:56;23.90;67.30
3350;DHT22;1688;51.000;13.684;2022-09-03T15:56:37;23.50;69.30
3350;DHT22;1688;51.000;13.684;2022-09-03T15:59:42;23.40;69.60
3350;DHT22;1688;51.000;13.684;2022-09-03T16:02:20;23.40;70.10
3350;DHT22;1688;51.000;13.684;2022-09-03T16:05:15;23.40;71.30
3350;DHT22;1688;51.000;13.684;2022-09-03T16:08:06;23.40;70.00
3350;DHT22;1688;51.000;13.684;2022-09-03T16:11:00;23.40;70.40
3350;DHT22;1688;51.000;13.684;2022-09-03T16:14:09;23.50;70.60
3350;DHT22;1688;51.000;13.684;2022-09-03T16:19:36;23.00;72.30
3350;DHT22;1688;51.000;13.684;2022-09-03T16:22:25;22.80;72.50
3350;DHT22;1688;51.000;13.684;2022-09-03T16:27:53;22.50;74.90
3350;DHT22;1688;51.000;13.684;2022-09-03T16:30:34;22.40;75.60
3350;DHT22;1688;51.000;13.684;2022-09-03T16:35:55;22.10;76.50
3350;DHT22;1688;51.000;13.684;2022-09-03T16:47:09;22.00;78.20
3350;DHT22;1688;51.000;13.684;2022-09-03T17:00:34;22.30;78.40
3350;DHT22;1688;51.000;13.684;2022-09-03T17:06:08;22.40;79.00
3350;DHT22;1688;51.000;13.684;2022-09-03T17:09:02;22.30;78.30
3350;DHT22;1688;51.000;13.684;2022-09-03T17:16:59;22.30;78.70
3350;DHT22;1688;51.000;13.684;2022-09-03T17:19:50;22.30;79.80
3350;DHT22;1688;51.000;13.684;2022-09-03T17:22:49;22.20;79.20
3350;DHT22;1688;51.000;13.684;2022-09-03T17:25:33;22.20;81.40
3350;DHT22;1688;51.000;13.684;2022-09-03T17:30:57;22.00;82.40
3350;DHT22;1688;51.000;13.684;2022-09-03T17:38:56;21.80;83.30
3350;DHT22;1688;51.000;13.684;2022-09-03T17:49:47;21.60;83.80
3350;DHT22;1688;51.000;13.684;2022-09-03T17:55:00;21.40;84.20
3350;DHT22;1688;51.000;13.684;2022-09-03T17:57:45;21.40;84.70
3350;DHT22;1688;51.000;13.684;2022-09-03T18:00:23;21.30;84.80
3350;DHT22;1688;51.000;13.684;2022-09-03T18:03:00;21.30;85.00
3350;DHT22;1688;51.000;13.684;2022-09-03T18:05:52;21.20;85.40
3350;DHT22;1688;51.000;13.684;2022-09-03T18:08:52;21.10;85.90
3350;DHT22;1688;51.000;13.684;2022-09-03T18:11:37;21.60;86.20
3350;DHT22;1688;51.000;13.684;2022-09-03T18:16:53;21.00;87.20
3350;DHT22;1688;51.000;13.684;2022-09-03T18:19:51;20.80;86.70
3350;DHT22;1688;51.000;13.684;2022-09-03T18:23:03;20.70;87.50
3350;DHT22;1688;51.000;13.684;2022-09-03T18:25:54;20.60;87.70
3350;DHT22;1688;51.000;13.684;2022-09-03T18:31:33;20.50;88.80
3350;DHT22;1688;51.000;13.684;2022-09-03T18:34:20;20.50;88.90
3350;DHT22;1688;51.000;13.684;2022-09-03T18:37:10;20.40;89.30
3350;DHT22;1688;51.000;13.684;2022-09-03T18:39:54;20.40;89.80
3350;DHT22;1688;51.000;13.684;2022-09-03T18:45:44;20.30;90.30
3350;DHT22;1688;51.000;13.684;2022-09-03T18:48:48;20.30;90.30
3350;DHT22;1688;51.000;13.684;2022-09-03T18:57:20;20.10;90.60
3350;DHT22;1688;51.000;13.684;2022-09-03T19:00:12;20.00;90.60
3350;DHT22;1688;51.000;13.684;2022-09-03T19:06:17;20.00;90.90
3350;DHT22;1688;51.000;13.684;2022-09-03T19:09:15;19.90;91.00
3350;DHT22;1688;51.000;13.684;2022-09-03T19:15:21;19.80;90.90
3350;DHT22;1688;51.000;13.684;2022-09-03T19:21:38;19.70;91.40
3350;DHT22;1688;51.000;13.684;2022-09-03T19:24:28;19.60;91.40
3350;DHT22;1688;51.000;13.684;2022-09-03T19:37:07;19.50;92.00
3350;DHT22;1688;51.000;13.684;2022-09-03T19:46:39;19.40;93.10
3350;DHT22;1688;51.000;13.684;2022-09-03T19:55:36;19.30;93.60
3350;DHT22;1688;51.000;13.684;2022-09-03T19:58:23;19.30;93.70
3350;DHT22;1688;51.000;13.684;2022-09-03T20:01:09;19.30;93.60
3350;DHT22;1688;51.000;13.684;2022-09-03T20:03:55;19.40;93.90
3350;DHT22;1688;51.000;13.684;2022-09-03T20:06:43;19.30;93.70
3350;DHT22;1688;51.000;13.684;2022-09-03T20:09:31;19.40;93.80
3350;DHT22;1688;51.000;13.684;2022-09-03T20:12:19;19.40;93.90
3350;DHT22;1688;51.000;13.684;2022-09-03T20:14:48;19.40;93.80
3350;DHT22;1688;51.000;13.684;2022-09-03T20:17:32;19.40;94.10
3350;DHT22;1688;51.000;13.684;2022-09-03T20:20:15;19.40;94.30
3350;DHT22;1688;51.000;13.684;2022-09-03T20:23:11;19.40;94.10
3350;DHT22;1688;51.000;13.684;2022-09-03T20:34:50;19.30;94.60
3350;DHT22;1688;51.000;13.684;2022-09-03T20:40:11;19.20;94.70
3350;DHT22;1688;51.000;13.684;2022-09-03T20:45:23;19.20;94.80
3350;DHT22;1688;51.000;13.684;2022-09-03T20:50:58;19.30;95.20
3350;DHT22;1688;51.000;13.684;2022-09-03T20:58:48;19.30;95.20
3350;DHT22;1688;51.000;13.684;2022-09-03T21:07:32;19.10;95.40
3350;DHT22;1688;51.000;13.684;2022-09-03T21:19:00;19.00;95.50
3350;DHT22;1688;51.000;13.684;2022-09-03T21:24:24;18.90;95.90
3350;DHT22;1688;51.000;13.684;2022-09-03T21:27:00;18.90;96.70
3350;DHT22;1688;51.000;13.684;2022-09-03T21:32:08;18.90;96.10
3350;DHT22;1688;51.000;13.684;2022-09-03T21:34:40;19.00;96.10
3350;DHT22;1688;51.000;13.684;2022-09-03T21:37:10;19.00;96.00
3350;DHT22;1688;51.000;13.684;2022-09-03T21:42:17;18.90;95.80
3350;DHT22;1688;51.000;13.684;2022-09-03T21:44:54;18.80;95.80
3350;DHT22;1688;51.000;13.684;2022-09-03T21:47:26;18.80;96.10
3350;DHT22;1688;51.000;13.684;2022-09-03T21:50:14;18.70;96.20
3350;DHT22;1688;51.000;13.684;2022-09-03T21:53:11;18.70;96.30
3350;DHT22;1688;51.000;13.684;2022-09-03T21:56:08;18.80;96.30
3350;DHT22;1688;51.000;13.684;2022-09-03T22:04:14;18.70;96.40
3350;DHT22;1688;51.000;13.684;2022-09-03T22:06:59;18.60;96.60
3350;DHT22;1688;51.000;13.684;2022-09-03T22:09:40;18.50;96.80
3350;DHT22;1688;51.000;13.684;2022-09-03T22:12:19;18.60;97.00
3350;DHT22;1688;51.000;13.684;2022-09-03T22:14:50;18.60;97.00
3350;DHT22;1688;51.000;13.684;2022-09-03T22:19:52;18.70;97.50
3350;DHT22;1688;51.000;13.684;2022-09-03T22:22:33;18.70;97.50
3350;DHT22;1688;51.000;13.684;2022-09-03T22:30:33;18.70;97.70
3350;DHT22;1688;51.000;13.684;2022-09-03T22:33:05;18.70;97.50
3350;DHT22;1688;51.000;13.684;2022-09-03T22:36:00;18.70;97.70